Time;durP1;ratioP1;P1;durP2;ratioP2;P2;SDS_P1;SDS_P2;PMS_P1;PMS_P2;Temp;Humidity;BMP_temperature;BMP_pressure;BME280_temperature;BME280_humidity;BME280_pressure;Samples;Min_cycle;Max_cycle;Signal;HPM_P1;HPM_P2
2022/07/01 00:02:09;;;;;;;1.43;1.00;;;25.60;52.70;;;;;;5085550;27;20574;-49
2022/07/01 00:05:09;;;;;;;1.10;0.90;;;25.60;53.00;;;;;;5102710;27;20638;-50
2022/07/01 00:07:58;;;;;;;1.30;0.93;;;25.60;52.90;;;;;;5105749;27;20587;-48
2022/07/01 00:10:40;;;;;;;1.20;1.10;;;25.60;54.20;;;;;;5070216;27;20674;-50
2022/07/01 00:13:19;;;;;;;1.10;1.00;;;25.60;53.00;;;;;;5088074;27;20585;-49
2022/07/01 00:16:00;;;;;;;2.07;0.90;;;25.60;53.00;;;;;;5101218;27;20612;-52
2022/07/01 00:18:41;;;;;;;2.10;1.20;;;25.60;52.90;;;;;;5110437;27;20525;-46
2022/07/01 00:21:22;;;;;;;1.50;1.17;;;25.60;52.90;;;;;;5086960;28;20527;-49
2022/07/01 00:24:02;;;;;;;1.50;1.40;;;25.60;53.00;;;;;;5122098;27;20525;-51
2022/07/01 00:26:43;;;;;;;1.90;1.50;;;25.60;52.80;;;;;;5128206;27;21016;-50
2022/07/01 00:29:23;;;;;;;1.27;1.00;;;25.60;52.80;;;;;;5081143;27;20579;-48
2022/07/01 00:32:05;;;;;;;1.43;0.90;;;25.50;52.90;;;;;;5083892;27;20539;-50
2022/07/01 00:34:46;;;;;;;1.10;1.00;;;25.50;52.90;;;;;;5075045;28;20942;-49
2022/07/01 00:37:26;;;;;;;1.17;0.90;;;25.50;52.90;;;;;;5085485;28;21063;-50
2022/07/01 00:40:09;;;;;;;1.23;0.90;;;25.50;52.80;;;;;;5075237;27;20537;-48
2022/07/01 00:42:49;;;;;;;1.63;0.97;;;25.50;52.80;;;;;;5086493;28;20569;-49
2022/07/01 00:45:29;;;;;;;1.23;0.80;;;25.50;52.80;;;;;;5082359;27;20537;-47
2022/07/01 00:48:10;;;;;;;1.63;1.10;;;25.50;52.90;;;;;;5104176;27;20530;-52
2022/07/01 00:50:51;;;;;;;1.17;0.90;;;25.50;52.80;;;;;;5032289;27;20550;-48
2022/07/01 00:53:33;;;;;;;0.97;0.77;;;25.50;52.80;;;;;;5074757;28;20527;-47
2022/07/01 00:56:14;;;;;;;1.30;0.90;;;25.50;52.70;;;;;;5086413;27;20528;-52
2022/07/01 00:58:56;;;;;;;2.50;1.07;;;25.50;52.80;;;;;;5123954;27;20566;-49
2022/07/01 01:01:37;;;;;;;1.23;0.90;;;25.40;52.70;;;;;;5084733;27;21105;-49
2022/07/01 01:04:18;;;;;;;1.00;0.90;;;25.40;52.70;;;;;;5071423;27;20963;-49
2022/07/01 01:06:58;;;;;;;1.00;0.90;;;25.40;52.70;;;;;;5107049;27;20583;-51
2022/07/01 01:09:40;;;;;;;1.43;1.00;;;25.40;52.80;;;;;;5058276;27;21127;-48
2022/07/01 01:12:22;;;;;;;0.70;0.70;;;25.40;52.70;;;;;;5088217;27;20523;-49
2022/07/01 01:15:04;;;;;;;0.70;0.67;;;25.40;52.70;;;;;;5104909;27;20536;-51
2022/07/01 01:17:47;;;;;;;1.57;1.00;;;25.40;52.70;;;;;;5080152;27;20670;-48
2022/07/01 01:20:27;;;;;;;1.50;0.90;;;25.40;52.80;;;;;;5072369;27;20579;-50
2022/07/01 01:23:07;;;;;;;1.60;0.87;;;25.40;52.80;;;;;;5085272;28;21099;-49
2022/07/01 01:25:49;;;;;;;1.40;1.30;;;25.40;52.70;;;;;;5104058;27;20534;-51
2022/07/01 01:28:29;;;;;;;1.00;0.80;;;25.40;52.60;;;;;;5126931;27;20517;-50
2022/07/01 01:31:14;;;;;;;2.97;0.77;;;25.40;52.70;;;;;;5085597;28;20558;-47
2022/07/01 01:33:55;;;;;;;1.00;0.90;;;25.30;52.60;;;;;;5081029;28;20523;-50
2022/07/01 01:36:37;;;;;;;0.80;0.80;;;25.30;52.50;;;;;;5082263;28;20533;-50
2022/07/01 01:39:16;;;;;;;1.43;0.70;;;25.30;52.60;;;;;;5115058;27;21123;-50
2022/07/01 01:42:00;;;;;;;1.03;0.80;;;25.30;52.70;;;;;;5088117;28;20563;-49
2022/07/01 01:44:41;;;;;;;1.07;0.80;;;25.30;52.50;;;;;;5069956;28;20953;-50
2022/07/01 01:47:21;;;;;;;0.80;0.80;;;25.30;52.50;;;;;;5126699;27;20525;-51
2022/07/01 01:50:02;;;;;;;1.37;0.63;;;25.30;52.60;;;;;;5084712;27;21117;-48
2022/07/01 01:52:43;;;;;;;1.53;0.80;;;25.30;52.40;;;;;;5085669;27;20584;-49
2022/07/01 01:55:24;;;;;;;2.00;0.80;;;25.20;52.50;;;;;;5083299;27;20611;-50
2022/07/01 01:58:05;;;;;;;0.73;0.73;;;25.20;52.60;;;;;;5128221;27;20517;-49
2022/07/01 02:00:46;;;;;;;0.70;0.70;;;25.20;52.60;;;;;;5033206;27;21134;-49
2022/07/01 02:03:28;;;;;;;0.80;0.60;;;25.20;52.40;;;;;;5086963;28;20656;-49
2022/07/01 02:06:10;;;;;;;2.30;0.80;;;25.20;52.40;;;;;;5128386;27;20586;-51
2022/07/01 02:08:50;;;;;;;1.47;0.60;;;25.20;52.40;;;;;;5072322;28;20587;-48
2022/07/01 02:11:30;;;;;;;1.23;0.70;;;25.20;52.20;;;;;;5087802;27;20519;-49
2022/07/01 02:14:10;;;;;;;1.27;0.93;;;25.10;52.40;;;;;;5127535;27;20528;-48
2022/07/01 02:16:51;;;;;;;1.00;0.90;;;25.10;52.40;;;;;;5129032;27;20935;-50
2022/07/01 02:19:31;;;;;;;2.07;0.90;;;25.10;52.40;;;;;;5097505;27;20593;-52
2022/07/01 02:22:11;;;;;;;1.37;0.97;;;25.10;52.30;;;;;;5133412;27;20527;-49
2022/07/01 02:24:51;;;;;;;0.80;0.80;;;25.10;52.60;;;;;;5089780;27;20534;-47
2022/07/01 02:27:31;;;;;;;1.00;0.73;;;25.10;52.40;;;;;;5087604;28;20577;-49
2022/07/01 02:30:11;;;;;;;0.70;0.60;;;25.10;52.50;;;;;;5048985;27;21117;-49
2022/07/01 02:32:52;;;;;;;0.80;0.73;;;25.10;52.40;;;;;;5076060;27;20599;-49
2022/07/01 02:35:32;;;;;;;1.03;0.60;;;25.10;52.30;;;;;;5082466;27;20535;-51
2022/07/01 02:38:13;;;;;;;1.60;0.80;;;25.10;52.40;;;;;;5084545;22;21129;-48
2022/07/01 02:40:53;;;;;;;1.00;0.90;;;25.10;52.50;;;;;;5069684;27;20595;-49
2022/07/01 02:43:33;;;;;;;1.37;0.63;;;25.10;52.40;;;;;;5087452;28;20594;-48
2022/07/01 02:46:12;;;;;;;0.90;0.73;;;25.10;52.40;;;;;;5087946;27;20573;-49
2022/07/01 02:48:52;;;;;;;1.37;0.93;;;25.10;52.50;;;;;;5118878;27;20568;-49
2022/07/01 02:51:34;;;;;;;0.80;0.77;;;25.00;52.40;;;;;;5108530;27;20556;-50
2022/07/01 02:54:16;;;;;;;1.40;0.57;;;25.10;52.50;;;;;;5072956;28;20599;-49
2022/07/01 02:56:56;;;;;;;1.03;0.80;;;25.00;52.30;;;;;;5087634;28;21050;-48
2022/07/01 02:59:36;;;;;;;0.70;0.70;;;25.10;52.30;;;;;;5080083;28;20586;-48
2022/07/01 03:02:16;;;;;;;1.00;0.70;;;25.00;52.40;;;;;;5107498;27;20947;-49
2022/07/01 03:04:56;;;;;;;0.70;0.60;;;25.10;53.70;;;;;;5096505;27;20889;-50
2022/07/01 03:07:37;;;;;;;1.10;0.77;;;25.00;52.40;;;;;;5067225;27;20597;-48
2022/07/01 03:10:17;;;;;;;1.27;1.00;;;25.00;52.30;;;;;;5081480;27;20533;-51
2022/07/01 03:12:58;;;;;;;1.70;1.23;;;25.00;51.90;;;;;;5085556;27;20516;-68
2022/07/01 03:15:38;;;;;;;1.53;0.60;;;25.00;52.20;;;;;;5032454;28;20547;-49
2022/07/01 03:18:19;;;;;;;1.03;0.80;;;25.00;52.30;;;;;;5104585;27;20530;-51
2022/07/01 03:21:00;;;;;;;0.90;0.80;;;25.00;52.40;;;;;;5038720;27;20957;-48
2022/07/01 03:23:41;;;;;;;0.80;0.80;;;24.90;52.20;;;;;;5085956;27;20584;-48
2022/07/01 03:26:21;;;;;;;5.57;1.73;;;24.90;52.10;;;;;;5080674;28;21043;-49
2022/07/01 03:29:02;;;;;;;2.23;0.80;;;25.00;52.20;;;;;;5122425;27;21585;-50
2022/07/01 03:31:42;;;;;;;1.03;0.93;;;24.90;53.40;;;;;;5123300;27;20578;-48
2022/07/01 03:34:22;;;;;;;1.97;0.80;;;24.90;52.10;;;;;;5071005;28;20547;-48
2022/07/01 03:37:01;;;;;;;1.10;0.87;;;24.90;52.20;;;;;;5087475;27;20577;-47
2022/07/01 03:39:42;;;;;;;0.90;0.53;;;24.90;52.20;;;;;;5056413;28;20604;-48
2022/07/01 03:42:23;;;;;;;0.90;0.83;;;24.90;52.30;;;;;;5087935;28;20585;-49
2022/07/01 03:45:03;;;;;;;1.17;0.80;;;24.90;52.30;;;;;;5082950;27;20534;-51
2022/07/01 03:47:48;;;;;;;2.43;0.80;;;24.90;52.30;;;;;;5081098;27;20589;-47
2022/07/01 03:50:29;;;;;;;0.80;0.80;;;24.90;52.30;;;;;;5078174;27;20610;-50
2022/07/01 03:56:07;;;;;;;1.57;0.73;;;24.90;52.30;;;;;;5067022;27;20595;-49
2022/07/01 03:58:47;;;;;;;0.80;0.63;;;24.90;52.20;;;;;;5077695;27;20601;-49
2022/07/01 04:01:29;;;;;;;1.63;1.10;;;24.80;52.20;;;;;;5103722;27;20530;-49
2022/07/01 04:04:08;;;;;;;1.53;0.90;;;24.80;52.30;;;;;;5077172;27;21132;-47
2022/07/01 04:06:48;;;;;;;1.00;0.60;;;24.80;52.20;;;;;;5147333;27;20516;-48
2022/07/01 04:09:31;;;;;;;1.67;0.80;;;24.80;52.10;;;;;;5066220;28;20593;-52
2022/07/01 04:12:12;;;;;;;1.00;0.90;;;24.80;52.10;;;;;;5088628;27;21112;-49
2022/07/01 04:14:52;;;;;;;1.77;0.77;;;24.80;52.10;;;;;;5058638;27;20547;-47
2022/07/01 04:17:32;;;;;;;1.90;0.80;;;24.80;52.00;;;;;;5084807;28;20585;-48
2022/07/01 04:20:12;;;;;;;1.10;1.00;;;24.70;52.00;;;;;;5050500;28;20594;-48
2022/07/01 04:22:55;;;;;;;0.77;0.63;;;24.70;52.10;;;;;;5085896;28;20584;-49
2022/07/01 04:25:35;;;;;;;0.87;0.50;;;24.70;52.10;;;;;;5041633;27;20603;-50
2022/07/01 04:28:16;;;;;;;1.27;0.80;;;24.70;52.10;;;;;;5092775;27;20932;-49
2022/07/01 04:30:56;;;;;;;1.57;0.70;;;24.70;52.10;;;;;;5088020;27;21062;-49
2022/07/01 04:33:37;;;;;;;1.10;0.80;;;24.70;52.20;;;;;;5087361;27;20531;-50
2022/07/01 04:36:18;;;;;;;0.83;0.70;;;24.70;52.20;;;;;;5108358;27;20579;-49
2022/07/01 04:38:59;;;;;;;0.97;0.87;;;24.70;52.10;;;;;;5083303;27;20579;-48
2022/07/01 04:44:37;;;;;;;1.13;0.80;;;24.60;52.00;;;;;;5065944;28;20587;-48
2022/07/01 04:47:24;;;;;;;2.83;0.90;;;24.60;51.90;;;;;;5065144;28;20525;-49
2022/07/01 04:50:04;;;;;;;1.17;0.70;;;24.60;52.00;;;;;;5054657;28;20590;-51
2022/07/01 04:52:45;;;;;;;1.30;0.80;;;24.60;52.10;;;;;;5085713;27;21055;-48
2022/07/01 04:55:25;;;;;;;0.70;0.70;;;24.60;52.10;;;;;;5046095;27;20961;-48
2022/07/01 04:58:05;;;;;;;1.80;0.80;;;24.60;52.10;;;;;;5087769;28;20582;-49
2022/07/01 05:00:44;;;;;;;0.80;0.80;;;24.60;52.20;;;;;;5037372;27;20951;-48
2022/07/01 05:03:24;;;;;;;0.97;0.73;;;24.60;52.20;;;;;;5082787;28;20532;-49
2022/07/01 05:06:06;;;;;;;0.90;0.70;;;24.60;52.20;;;;;;5084355;27;20547;-49
2022/07/01 05:08:47;;;;;;;1.33;0.90;;;24.60;52.20;;;;;;5085215;27;20531;-49
2022/07/01 05:11:27;;;;;;;1.73;0.73;;;24.60;52.20;;;;;;5088139;27;20582;-48
2022/07/01 05:14:07;;;;;;;0.60;0.60;;;24.60;52.10;;;;;;5122147;27;20543;-47
2022/07/01 05:16:46;;;;;;;1.80;0.70;;;24.50;52.30;;;;;;5102316;27;20531;-49
2022/07/01 05:22:24;;;;;;;1.23;0.77;;;24.50;52.20;;;;;;5086385;27;20585;-47
2022/07/01 05:25:04;;;;;;;1.40;0.70;;;24.50;52.20;;;;;;5054335;28;20543;-49
2022/07/01 05:27:45;;;;;;;2.03;0.70;;;24.50;52.10;;;;;;5087621;27;20512;-48
2022/07/01 05:30:25;;;;;;;0.80;0.80;;;24.50;52.40;;;;;;5030107;27;20971;-48
2022/07/01 05:33:04;;;;;;;0.90;0.70;;;24.50;52.40;;;;;;5124151;27;20590;-48
2022/07/01 05:35:44;;;;;;;1.10;0.90;;;24.50;52.40;;;;;;5094083;27;20582;-50
2022/07/01 05:38:24;;;;;;;2.47;0.90;;;24.50;52.30;;;;;;5086803;28;20594;-50
2022/07/01 05:41:04;;;;;;;1.10;1.00;;;24.50;52.30;;;;;;5068510;28;20532;-47
2022/07/01 05:43:45;;;;;;;2.50;1.07;;;24.50;52.40;;;;;;5087038;28;20524;-46
2022/07/01 05:46:27;;;;;;;1.20;1.10;;;24.50;52.30;;;;;;5108001;27;20937;-50
2022/07/01 05:49:07;;;;;;;1.50;1.00;;;24.40;52.10;;;;;;5124099;27;20581;-50
2022/07/01 05:51:48;;;;;;;1.23;0.77;;;24.40;52.10;;;;;;5088506;28;20507;-48
2022/07/01 05:54:29;;;;;;;1.03;0.70;;;24.40;52.20;;;;;;5115746;27;20593;-50
2022/07/01 05:57:09;;;;;;;0.90;0.80;;;24.40;52.20;;;;;;5087537;27;20581;-48
2022/07/01 05:59:50;;;;;;;1.27;0.90;;;24.40;52.20;;;;;;5080841;27;20604;-51
2022/07/01 06:02:30;;;;;;;1.17;0.90;;;24.30;52.10;;;;;;5128901;27;20784;-49
2022/07/01 06:05:13;;;;;;;0.80;0.70;;;24.40;52.40;;;;;;5075816;27;20595;-48
2022/07/01 06:07:53;;;;;;;2.77;1.20;;;24.30;52.40;;;;;;5110337;27;20576;-48
2022/07/01 06:10:33;;;;;;;1.60;1.02;;;24.30;52.00;;;;;;5104485;27;1214622;-48
2022/07/01 06:13:14;;;;;;;0.77;0.77;;;24.30;52.20;;;;;;5088176;27;20566;-47
2022/07/01 06:15:54;;;;;;;1.57;1.00;;;24.30;52.40;;;;;;5072505;27;21149;-47
2022/07/01 06:18:36;;;;;;;1.43;0.90;;;24.30;52.40;;;;;;5107635;27;20530;-47
2022/07/01 06:21:18;;;;;;;1.37;0.97;;;24.30;52.60;;;;;;5128364;27;20574;-49
2022/07/01 06:23:58;;;;;;;1.00;0.90;;;24.30;52.50;;;;;;5101420;27;20526;-47
2022/07/01 06:26:40;;;;;;;0.97;0.80;;;24.30;52.50;;;;;;5125926;27;20675;-48
2022/07/01 06:29:25;;;;;;;1.50;0.83;;;24.30;52.40;;;;;;5081514;27;20534;-49
2022/07/01 06:32:08;;;;;;;1.23;0.80;;;24.20;52.40;;;;;;5143057;27;20611;-48
2022/07/01 06:34:49;;;;;;;1.10;0.80;;;24.20;52.30;;;;;;5130117;27;20563;-51
2022/07/01 06:37:32;;;;;;;1.55;1.00;;;24.20;52.50;;;;;;5014667;27;4135130;-49
2022/07/01 06:40:14;;;;;;;1.33;0.97;;;24.20;52.40;;;;;;5073774;27;20550;-50
2022/07/01 06:42:57;;;;;;;2.67;0.80;;;24.20;52.50;;;;;;5086969;28;20528;-48
2022/07/01 06:45:39;;;;;;;2.90;0.90;;;24.20;52.60;;;;;;5059798;28;20596;-49
2022/07/01 06:48:21;;;;;;;2.00;0.80;;;24.20;52.70;;;;;;5127959;27;20578;-47
2022/07/01 06:51:04;;;;;;;0.80;0.70;;;24.20;52.50;;;;;;5069988;27;21181;-49
2022/07/01 06:53:46;;;;;;;1.40;0.90;;;24.10;52.60;;;;;;5125741;27;20614;-51
2022/07/01 06:56:28;;;;;;;1.03;0.90;;;24.10;52.40;;;;;;5079996;28;20535;-48
2022/07/01 06:59:10;;;;;;;1.00;0.90;;;24.10;52.30;;;;;;5103692;27;21152;-49
2022/07/01 07:01:52;;;;;;;1.00;0.80;;;24.10;52.50;;;;;;5127756;27;20520;-48
2022/07/01 07:04:34;;;;;;;0.97;0.87;;;24.10;52.70;;;;;;5145143;27;20599;-49
2022/07/01 07:07:37;;;;;;;1.10;0.97;;;24.10;52.70;;;;;;5092690;27;20602;-48
2022/07/01 07:10:18;;;;;;;2.75;1.40;;;24.10;52.60;;;;;;5112543;27;20990;-50
2022/07/01 07:12:59;;;;;;;1.50;1.13;;;23.90;51.60;;;;;;5074978;28;20587;-47
2022/07/01 07:15:41;;;;;;;3.27;1.13;;;23.90;52.00;;;;;;5038322;28;20635;-48
2022/07/01 07:18:22;;;;;;;2.40;1.37;;;23.90;52.10;;;;;;5104271;27;20604;-50
2022/07/01 07:21:04;;;;;;;2.43;1.30;;;23.90;52.10;;;;;;5060217;27;20600;-48
2022/07/01 07:23:45;;;;;;;2.30;1.10;;;23.90;52.00;;;;;;5086822;27;20531;-49
2022/07/01 07:26:26;;;;;;;3.47;1.00;;;23.90;52.20;;;;;;5082526;27;20612;-49
2022/07/01 07:29:08;;;;;;;1.63;1.20;;;23.90;52.10;;;;;;5117885;27;20631;-49
2022/07/01 07:31:49;;;;;;;1.50;1.13;;;23.90;52.00;;;;;;5076510;28;21057;-49
2022/07/01 07:34:28;;;;;;;1.27;0.90;;;23.90;51.90;;;;;;5120087;27;20603;-48
2022/07/01 07:37:08;;;;;;;2.40;1.07;;;23.90;52.10;;;;;;5085921;28;20532;-51
2022/07/01 07:39:48;;;;;;;1.20;0.90;;;23.90;51.80;;;;;;5114048;27;20605;-48
2022/07/01 07:42:30;;;;;;;1.23;1.13;;;23.90;51.90;;;;;;5087730;27;20571;-47
2022/07/01 07:45:13;;;;;;;1.83;0.90;;;23.90;51.90;;;;;;5055503;27;20555;-48
2022/07/01 07:48:00;;;;;;;1.20;0.77;;;23.90;52.00;;;;;;5085385;28;20528;-49
2022/07/01 07:50:41;;;;;;;1.57;0.93;;;23.90;52.00;;;;;;5077663;27;20957;-49
2022/07/01 07:53:22;;;;;;;1.50;0.90;;;23.90;52.10;;;;;;5084714;27;20590;-48
2022/07/01 07:56:02;;;;;;;2.40;1.20;;;23.90;52.20;;;;;;5063841;27;20550;-48
2022/07/01 07:58:43;;;;;;;1.90;1.13;;;23.90;52.10;;;;;;5090132;27;20914;-48
2022/07/01 08:01:23;;;;;;;1.33;1.23;;;23.90;52.10;;;;;;5144879;27;1289926;-49
2022/07/01 08:04:05;;;;;;;2.63;1.33;;;23.90;53.50;;;;;;5101379;27;20650;-49
2022/07/01 08:06:45;;;;;;;1.60;1.40;;;23.90;52.10;;;;;;5086012;27;20589;-49
2022/07/01 08:09:26;;;;;;;1.33;1.20;;;23.90;52.20;;;;;;5136401;27;20526;-49
2022/07/01 08:12:07;;;;;;;1.53;1.10;;;23.90;52.10;;;;;;5127639;27;20595;-50
2022/07/01 08:14:48;;;;;;;1.13;1.03;;;23.90;52.00;;;;;;5113599;27;20546;-47
2022/07/01 08:17:29;;;;;;;1.00;0.90;;;23.90;51.90;;;;;;5085238;28;21058;-48
2022/07/01 08:20:12;;;;;;;1.30;1.03;;;23.80;51.80;;;;;;5073495;27;20583;-49
2022/07/01 08:22:52;;;;;;;2.10;1.10;;;23.80;51.70;;;;;;5085058;28;20581;-52
2022/07/01 08:25:34;;;;;;;5.30;1.63;;;23.80;51.70;;;;;;5044261;27;20527;-72
2022/07/01 08:28:15;;;;;;;1.53;1.23;;;23.80;51.60;;;;;;5087473;28;20530;-48
2022/07/01 08:30:56;;;;;;;1.07;0.90;;;23.80;51.70;;;;;;5068611;27;20541;-48
2022/07/01 08:33:38;;;;;;;1.40;1.27;;;23.80;51.60;;;;;;5100065;27;20534;-49
2022/07/01 08:36:20;;;;;;;1.63;1.53;;;23.80;51.80;;;;;;5071652;27;20946;-48
2022/07/01 08:39:01;;;;;;;2.07;1.53;;;23.80;52.70;;;;;;5148677;22;20620;-49
2022/07/01 08:41:43;;;;;;;1.20;1.00;;;23.80;51.30;;;;;;5087779;28;20573;-49
2022/07/01 08:44:24;;;;;;;1.43;1.20;;;23.80;51.10;;;;;;5093779;27;20527;-50
2022/07/01 08:47:05;;;;;;;0.83;0.70;;;23.80;51.30;;;;;;5127362;27;20517;-48
2022/07/01 08:49:47;;;;;;;1.50;1.10;;;23.80;51.60;;;;;;5085877;27;21071;-49
2022/07/01 08:52:30;;;;;;;1.90;1.17;;;23.80;51.80;;;;;;5086581;28;20562;-48
2022/07/01 08:55:12;;;;;;;1.90;1.20;;;23.80;51.60;;;;;;5102703;27;20538;-49
2022/07/01 08:57:53;;;;;;;1.40;0.77;;;23.80;51.80;;;;;;5087391;27;20520;-49
2022/07/01 09:00:34;;;;;;;1.20;0.90;;;23.80;51.60;;;;;;5115437;27;20517;-49
2022/07/01 09:03:15;;;;;;;1.53;1.17;;;23.80;51.50;;;;;;5095951;27;21026;-50
2022/07/01 09:05:57;;;;;;;1.43;1.10;;;23.80;51.60;;;;;;5068080;27;20574;-49
2022/07/01 09:08:37;;;;;;;1.13;0.93;;;23.80;51.60;;;;;;5114650;27;20534;-49
2022/07/01 09:11:20;;;;;;;1.53;1.03;;;23.80;51.70;;;;;;5086809;27;20527;-48
2022/07/01 09:14:11;;;;;;;1.70;1.20;;;23.80;51.40;;;;;;5088932;27;21121;-48
2022/07/01 09:16:54;;;;;;;1.33;1.03;;;23.80;51.30;;;;;;5081628;28;20889;-49
2022/07/01 09:19:36;;;;;;;0.90;0.90;;;23.80;51.30;;;;;;5080470;27;20545;-49
2022/07/01 09:22:27;;;;;;;1.73;1.43;;;23.80;51.00;;;;;;5085412;28;20653;-48
2022/07/01 09:25:15;;;;;;;1.20;1.10;;;23.80;51.10;;;;;;5111099;27;20542;-49
2022/07/01 09:28:06;;;;;;;1.70;0.80;;;23.80;51.20;;;;;;5087587;27;20574;-49
2022/07/01 09:30:48;;;;;;;3.30;1.30;;;23.80;51.30;;;;;;5127450;27;21051;-48
2022/07/01 09:33:30;;;;;;;1.30;1.20;;;23.80;51.30;;;;;;5089089;27;20578;-48
2022/07/01 09:36:16;;;;;;;2.80;1.33;;;23.80;51.30;;;;;;5104085;27;20617;-49
2022/07/01 09:38:57;;;;;;;1.03;0.93;;;23.80;51.40;;;;;;5080636;28;20929;-50
2022/07/01 09:42:00;;;;;;;1.43;1.17;;;23.70;51.00;;;;;;5091553;27;20652;-49
2022/07/01 09:44:54;;;;;;;1.03;0.93;;;23.70;50.50;;;;;;5069600;27;21023;-50
2022/07/01 09:47:44;;;;;;;0.90;0.90;;;23.70;51.00;;;;;;5114759;27;20559;-50
2022/07/01 09:50:24;;;;;;;1.07;1.00;;;23.70;51.00;;;;;;5102858;27;21067;-49
2022/07/01 09:53:04;;;;;;;1.27;1.17;;;23.70;51.30;;;;;;5085678;28;20535;-49
2022/07/01 09:55:45;;;;;;;2.10;1.30;;;23.70;51.30;;;;;;5038237;27;21113;-48
2022/07/01 09:58:27;;;;;;;2.00;1.30;;;23.70;51.30;;;;;;5108529;27;20514;-49
2022/07/01 10:01:09;;;;;;;1.73;1.00;;;23.70;50.70;;;;;;5041757;27;1793897;-49
2022/07/01 10:03:50;;;;;;;1.00;0.90;;;23.70;51.00;;;;;;5128039;27;20566;-49
2022/07/01 10:06:47;;;;;;;1.60;1.33;;;23.60;51.10;;;;;;5094112;27;20583;-50
2022/07/01 10:09:53;;;;;;;2.43;1.23;;;23.60;51.00;;;;;;5080729;27;20586;-47
2022/07/01 10:12:41;;;;;;;1.23;0.97;;;23.60;51.00;;;;;;5087357;28;20574;-49
2022/07/01 10:15:23;;;;;;;1.20;1.10;;;23.60;50.90;;;;;;5077955;27;20554;-49
2022/07/01 10:18:04;;;;;;;2.50;0.97;;;23.60;51.00;;;;;;5126757;27;20522;-48
2022/07/01 10:20:48;;;;;;;1.43;1.07;;;23.60;49.80;;;;;;5098230;27;20591;-49
2022/07/01 10:23:39;;;;;;;1.03;0.93;;;23.60;50.40;;;;;;5087438;27;21091;-48
2022/07/01 10:26:20;;;;;;;2.50;1.43;;;23.60;50.70;;;;;;5128255;27;20603;-50
2022/07/01 10:29:03;;;;;;;1.60;1.30;;;23.60;51.70;;;;;;5080975;28;20533;-49
2022/07/01 10:31:44;;;;;;;1.40;1.20;;;23.60;50.50;;;;;;5079152;27;20600;-49
2022/07/01 10:34:34;;;;;;;2.70;1.17;;;23.60;50.10;;;;;;5093268;27;20550;-48
2022/07/01 10:37:19;;;;;;;1.20;1.10;;;23.60;49.80;;;;;;5087489;28;20585;-49
2022/07/01 10:40:01;;;;;;;1.30;1.20;;;23.60;50.10;;;;;;5123652;27;20546;-49
2022/07/01 10:42:59;;;;;;;1.50;1.00;;;23.60;50.20;;;;;;5069381;27;20592;-49
2022/07/01 10:45:57;;;;;;;1.80;1.23;;;23.60;50.20;;;;;;5061899;27;20581;-49
2022/07/01 10:48:39;;;;;;;1.70;1.50;;;23.60;49.70;;;;;;5137375;27;20630;-49
2022/07/01 10:51:43;;;;;;;1.83;1.23;;;23.60;50.00;;;;;;5072744;27;20584;-49
2022/07/01 10:54:48;;;;;;;1.30;1.20;;;23.60;50.00;;;;;;5075964;27;20663;-49
2022/07/01 10:57:33;;;;;;;1.83;1.40;;;23.60;49.80;;;;;;5044432;28;20543;-48
2022/07/01 11:00:32;;;;;;;1.23;1.13;;;23.50;50.00;;;;;;5062260;27;20960;-49
2022/07/01 11:03:24;;;;;;;1.30;1.00;;;23.50;49.70;;;;;;5127785;27;20583;-48
2022/07/01 11:06:05;;;;;;;1.23;1.10;;;23.50;49.60;;;;;;5064944;27;20556;-49
2022/07/01 11:08:50;;;;;;;1.13;1.00;;;23.50;50.10;;;;;;5099367;27;21127;-49
2022/07/01 11:11:31;;;;;;;1.47;0.90;;;23.50;49.90;;;;;;5087112;27;20536;-48
2022/07/01 11:14:12;;;;;;;2.13;1.10;;;23.50;49.90;;;;;;5083230;28;20585;-48
2022/07/01 11:16:52;;;;;;;3.43;1.10;;;23.50;50.00;;;;;;5098653;27;20544;-48
2022/07/01 11:19:34;;;;;;;1.20;1.10;;;23.50;49.80;;;;;;5073958;28;20953;-50
2022/07/01 11:22:20;;;;;;;1.97;1.00;;;23.50;49.60;;;;;;5094485;27;21127;-49
2022/07/01 11:25:02;;;;;;;1.60;1.00;;;23.50;49.70;;;;;;5066696;28;20605;-48
2022/07/01 11:27:46;;;;;;;1.90;1.10;;;23.50;49.40;;;;;;5109296;27;20579;-48
2022/07/01 11:30:27;;;;;;;2.33;1.17;;;23.50;49.10;;;;;;5091496;27;20546;-49
2022/07/01 11:33:10;;;;;;;2.10;0.90;;;23.50;49.10;;;;;;5083964;27;20578;-50
2022/07/01 11:41:53;;;;;;;1.50;1.13;;;23.50;48.90;;;;;;5065387;28;20542;-49
2022/07/01 11:44:36;;;;;;;4.07;1.27;;;23.50;49.20;;;;;;5115686;27;20550;-49
2022/07/01 11:47:26;;;;;;;0.83;0.80;;;23.50;50.20;;;;;;5071382;28;20534;-49
2022/07/01 11:50:14;;;;;;;2.03;1.00;;;23.50;49.50;;;;;;5050194;27;21475;-48
2022/07/01 11:52:56;;;;;;;3.50;1.20;;;23.50;49.20;;;;;;5049521;28;20976;-50
2022/07/01 11:55:35;;;;;;;3.42;1.40;;;23.40;48.70;;;;;;5087188;27;1234507;-49
2022/07/01 11:58:18;;;;;;;2.40;1.10;;;23.40;49.00;;;;;;5082973;28;20945;-49
2022/07/01 12:01:00;;;;;;;1.93;1.00;;;23.40;48.70;;;;;;5057898;27;20615;-49
2022/07/01 12:03:41;;;;;;;3.10;1.30;;;23.40;49.00;;;;;;5106698;27;20631;-48
2022/07/01 12:06:24;;;;;;;3.13;1.13;;;23.40;48.80;;;;;;5072481;28;20533;-48
2022/07/01 12:09:05;;;;;;;1.40;1.10;;;23.40;48.70;;;;;;5081590;28;20535;-49
2022/07/01 12:11:48;;;;;;;1.33;1.10;;;23.40;48.70;;;;;;5129251;27;20510;-49
2022/07/01 12:14:32;;;;;;;1.90;0.90;;;23.40;48.60;;;;;;5071149;27;20587;-48
2022/07/01 12:17:17;;;;;;;2.10;1.00;;;23.40;48.80;;;;;;5080722;27;20619;-49
2022/07/01 12:20:01;;;;;;;1.63;1.13;;;23.40;49.00;;;;;;5056390;28;20954;-49
2022/07/01 12:22:42;;;;;;;1.83;0.73;;;23.40;48.60;;;;;;5081604;27;20539;-50
2022/07/01 12:25:23;;;;;;;0.93;0.80;;;23.40;48.90;;;;;;5078257;27;20550;-48
2022/07/01 12:28:03;;;;;;;1.70;1.27;;;23.40;49.00;;;;;;5088221;27;21111;-49
2022/07/01 12:30:45;;;;;;;1.23;1.00;;;23.40;49.00;;;;;;5068418;28;20582;-47
2022/07/01 12:33:27;;;;;;;2.10;0.80;;;23.40;49.10;;;;;;5087836;28;20562;-49
2022/07/01 12:36:10;;;;;;;0.83;0.83;;;23.40;48.80;;;;;;5060407;28;20608;-48
2022/07/01 12:39:06;;;;;;;1.37;0.90;;;23.40;48.60;;;;;;5080809;27;20588;-49
2022/07/01 12:41:51;;;;;;;1.77;0.90;;;23.40;48.60;;;;;;5086943;28;20565;-49
2022/07/01 12:44:32;;;;;;;1.77;0.90;;;23.40;48.60;;;;;;5090082;27;20584;-49
2022/07/01 12:47:24;;;;;;;1.27;0.77;;;23.40;48.40;;;;;;5082795;27;21126;-49
2022/07/01 12:50:13;;;;;;;1.63;0.80;;;23.40;48.50;;;;;;5063244;27;20606;-48
2022/07/01 12:53:02;;;;;;;1.80;0.93;;;23.40;48.60;;;;;;5098280;27;20591;-48
2022/07/01 12:55:44;;;;;;;1.30;0.90;;;23.40;48.60;;;;;;5052692;28;20613;-48
2022/07/01 12:58:27;;;;;;;1.40;0.93;;;23.50;48.40;;;;;;5087681;27;20561;-48
2022/07/01 13:01:08;;;;;;;1.53;1.00;;;23.50;48.50;;;;;;5071895;27;20541;-48
2022/07/01 13:03:52;;;;;;;0.80;0.53;;;23.40;48.50;;;;;;5060542;28;20530;-49
2022/07/01 13:06:32;;;;;;;3.10;1.00;;;23.50;48.20;;;;;;5071209;27;20635;-48
2022/07/01 13:09:14;;;;;;;1.53;0.80;;;23.50;48.30;;;;;;5081136;28;20595;-48
2022/07/01 13:11:53;;;;;;;1.40;0.80;;;23.40;48.10;;;;;;5085170;28;20931;-49
2022/07/01 13:14:35;;;;;;;0.70;0.63;;;23.40;48.00;;;;;;5107290;27;20541;-51
2022/07/01 13:17:15;;;;;;;1.70;0.73;;;23.40;48.50;;;;;;5115801;27;21135;-48
2022/07/01 13:19:55;;;;;;;2.10;0.80;;;23.50;48.50;;;;;;5065732;27;20585;-49
2022/07/01 13:22:36;;;;;;;1.83;1.17;;;23.50;47.90;;;;;;5081727;27;21140;-48
2022/07/01 13:25:18;;;;;;;1.00;0.77;;;23.50;48.00;;;;;;5064399;27;20539;-51
2022/07/01 13:27:58;;;;;;;0.90;0.77;;;23.50;47.90;;;;;;5140048;27;1217475;-51
2022/07/01 13:30:39;;;;;;;1.37;0.53;;;23.50;47.80;;;;;;5060201;28;20602;-49
2022/07/01 13:33:18;;;;;;;1.90;0.73;;;23.50;48.10;;;;;;5084014;28;20537;-49
2022/07/01 13:35:58;;;;;;;1.60;0.70;;;23.50;48.30;;;;;;5024463;27;21075;-49
2022/07/01 13:38:40;;;;;;;1.33;0.70;;;23.40;47.90;;;;;;5078927;27;20548;-50
2022/07/01 13:41:21;;;;;;;2.47;0.70;;;23.50;48.00;;;;;;5126655;27;20573;-48
2022/07/01 13:44:01;;;;;;;4.95;1.00;;;23.50;48.10;;;;;;5057143;28;20508;-49
2022/07/01 13:46:43;;;;;;;1.93;0.60;;;23.50;47.50;;;;;;5080469;28;20957;-50
2022/07/01 13:49:27;;;;;;;2.00;1.00;;;23.50;47.80;;;;;;5070314;28;20541;-48
2022/07/01 13:52:07;;;;;;;1.30;0.70;;;23.50;47.30;;;;;;5088024;27;20934;-50
2022/07/01 13:54:49;;;;;;;4.07;1.17;;;23.40;47.30;;;;;;5061862;27;20602;-52
2022/07/01 13:57:29;;;;;;;1.93;0.63;;;23.40;47.50;;;;;;5127797;27;20563;-51
2022/07/01 14:00:11;;;;;;;1.87;0.80;;;23.40;47.80;;;;;;5117289;27;20898;-48
2022/07/01 14:02:51;;;;;;;1.80;0.80;;;23.40;47.90;;;;;;5064286;27;20571;-49
2022/07/01 14:05:32;;;;;;;1.10;0.90;;;23.40;47.60;;;;;;5073071;27;20535;-51
2022/07/01 14:08:14;;;;;;;1.20;0.60;;;23.40;47.60;;;;;;5127115;27;20536;-47
2022/07/01 14:10:54;;;;;;;2.90;0.83;;;23.50;47.70;;;;;;5036540;27;20586;-49
2022/07/01 14:13:39;;;;;;;1.37;0.97;;;23.50;47.60;;;;;;5087671;27;20520;-49
2022/07/01 14:16:19;;;;;;;1.57;0.73;;;23.50;47.70;;;;;;5107370;27;21121;-51
2022/07/01 14:18:59;;;;;;;0.90;0.60;;;23.40;47.50;;;;;;5120232;27;20529;-49